Ever Develop — 3FLF8 — position and weather

sailwx.info

Track history (hours):
 
Tides and Currents Weather Stations Pressure Air Temp Water Temp Dewpoint Dewpoint Depression Visibility Wind Speed Wind Dir Waves Ship Positions

Ever Develop

Last reported at 2016-Apr-27 16:06 UTC. Time now 2016-Apr-29 23:31 UTC.
Position N 09°26' W 079°55'.

Type: Ship (hazmat cat D). MMSI: 356391000.

Date/timePositionNaut miles runAvg speedWind from/ knotsBaromVisibWave heightAir tempDewpointWater temp
2016-Apr-27 16:06N 09°26' W 079°55'4 7.5
2016-Apr-27 15:33N 09°22' W 079°54'5 0.2
2016-Apr-26 18:32N 09°27' W 079°53'  
2016-Apr-22 19:00N 31°00' W 071°42'29115.3 210 / 101023.010.8 1.522.0
2016-Apr-22 00:00N 35°48' W 070°54'6716.7 210 / 161023.010.8 1.517.013.5
2016-Apr-21 20:00N 36°54' W 070°42'11714.6 230 / 131024.010.8 1.019.019.016.0
2016-Apr-21 12:00N 38°36' W 071°54'7315.3 210 / 121025.010.8 0.515.011.3
2016-Apr-21 07:16N 39°33' W 072°52'1115.4
2016-Apr-21 06:33N 39°41' W 073°01'1515.3
2016-Apr-21 05:33N 39°53' W 073°14'2015.5
2016-Apr-21 04:17N 40°09' W 073°30'911.8
2016-Apr-21 03:33N 40°15' W 073°37'9 9.5
2016-Apr-21 02:33N 40°23' W 073°45'9 8.9
2016-Apr-21 01:33N 40°29' W 073°53'1111.0
2016-Apr-21 00:33N 40°37' W 074°03'5 5.3
2016-Apr-20 23:33N 40°40' W 074°08'0 0.2
2016-Apr-20 22:33N 40°40' W 074°08'0 0.0
2016-Apr-20 21:33N 40°40' W 074°08'0 0.0
2016-Apr-20 20:33N 40°40' W 074°08'0 0.0
2016-Apr-20 19:33N 40°40' W 074°08'0 0.0
2016-Apr-20 18:33N 40°40' W 074°08'0 0.0
2016-Apr-20 17:33N 40°40' W 074°08'0 0.0
2016-Apr-20 16:33N 40°40' W 074°08'0 0.0
2016-Apr-20 15:33N 40°40' W 074°08'0 0.0
2016-Apr-20 14:33N 40°40' W 074°08'0 0.0
2016-Apr-20 13:30N 40°40' W 074°08'0 0.0
2016-Apr-20 12:33N 40°40' W 074°08'0 0.0
2016-Apr-20 11:33N 40°40' W 074°08'0 0.0
2016-Apr-20 10:33N 40°40' W 074°08'2 1.9
2016-Apr-20 09:33N 40°39' W 074°07'3 3.4
2016-Apr-20 08:33N 40°37' W 074°03'8 8.2
2016-Apr-20 07:33N 40°30' W 073°58'9 8.6
2016-Apr-20 06:32N 40°26' W 073°48'9 8.7
2016-Apr-20 05:28N 40°16' W 073°46'9 8.9
2016-Apr-20 04:30N 40°08' W 073°44'1010.3
2016-Apr-20 03:33N 39°58' W 073°43'1817.5
2016-Apr-20 02:33N 39°41' W 073°44'1818.2
2016-Apr-20 01:33N 39°24' W 073°52'1818.2
2016-Apr-20 00:34N 39°07' W 074°00'4118.3
2016-Apr-19 22:18N 38°29' W 074°22'1518.5
2016-Apr-19 21:29N 38°16' W 074°30'9718.4
2016-Apr-19 16:11N 36°50' W 075°30'6 9.7
2016-Apr-19 15:33N 36°48' W 075°36'9 9.0
2016-Apr-19 14:33N 36°49' W 075°48'8 8.4
2016-Apr-19 13:33N 36°54' W 075°56'1211.9
2016-Apr-19 12:33N 36°59' W 076°09'1010.0
2016-Apr-19 11:33N 36°54' W 076°20'1 1.3
2016-Apr-19 10:31N 36°53' W 076°21'0 0.0
2016-Apr-19 09:31N 36°53' W 076°21'0 0.0
2016-Apr-19 08:31N 36°53' W 076°21'0 0.0
2016-Apr-19 07:31N 36°53' W 076°21'0 0.0
2016-Apr-19 06:31N 36°53' W 076°21'0 0.0
2016-Apr-19 05:31N 36°53' W 076°21'0 0.0
2016-Apr-19 04:31N 36°53' W 076°21'0 0.0
2016-Apr-19 03:31N 36°53' W 076°21'0 0.0
2016-Apr-19 02:31N 36°53' W 076°21'1 0.9
2016-Apr-19 01:34N 36°53' W 076°20'9 8.5
2016-Apr-19 00:33N 37°00' W 076°14'1414.1
2016-Apr-18 23:33N 36°56' W 075°58'7 7.4
2016-Apr-18 22:33N 36°52' W 075°50'7 3.3
2016-Apr-18 20:33N 36°48' W 075°43'6 6.2
2016-Apr-18 19:33N 36°51' W 075°50'7 6.8
2016-Apr-18 18:33N 36°55' W 075°57'1312.9
2016-Apr-18 17:32N 37°05' W 076°07'5618.6
2016-Apr-18 14:33N 38°01' W 076°13'2720.6
2016-Apr-18 13:15N 38°27' W 076°22'1318.5
2016-Apr-18 12:33N 38°39' W 076°25'1716.5
2016-Apr-18 11:33N 38°56' W 076°23'1313.3
2016-Apr-18 10:34N 39°09' W 076°25'9 9.2
2016-Apr-18 09:34N 39°15' W 076°34'1 0.6
2016-Apr-18 08:33N 39°15' W 076°33'0 0.0
2016-Apr-18 07:33N 39°15' W 076°33'0 0.0
2016-Apr-18 06:33N 39°15' W 076°33'0 0.0
2016-Apr-18 05:33N 39°15' W 076°33'0 0.0
2016-Apr-18 04:33N 39°15' W 076°33'0 0.0
2016-Apr-18 03:30N 39°15' W 076°33'0 0.0
2016-Apr-18 02:33N 39°15' W 076°33'0 0.0
2016-Apr-18 01:33N 39°15' W 076°33'0 0.0
2016-Apr-18 00:33N 39°15' W 076°33'0 0.0
2016-Apr-17 23:33N 39°15' W 076°33'0 0.0
2016-Apr-17 22:33N 39°15' W 076°33'0 0.0
2016-Apr-17 21:33N 39°15' W 076°33'0 0.0
2016-Apr-17 20:33N 39°15' W 076°33'0 0.0
2016-Apr-17 19:33N 39°15' W 076°33'0 0.0
2016-Apr-17 18:33N 39°15' W 076°33'0 0.0
2016-Apr-17 17:33N 39°15' W 076°33'0 0.0
2016-Apr-17 16:33N 39°15' W 076°33'  
Track history (hours):
 
Tides and Currents Weather Stations Pressure Air Temp Water Temp Dewpoint Dewpoint Depression Visibility Wind Speed Wind Dir Waves Ship Positions

Ever Develop

Last reported at 2016-Apr-27 16:06 UTC. Time now 2016-Apr-29 23:31 UTC.
Position N 09°26' W 079°55'.

Type: Ship (hazmat cat D). MMSI: 356391000.

Date/timePositionNaut miles runAvg speedWind from/ knotsBaromVisibWave heightAir tempDewpointWater temp
2016-Apr-27 16:06N 09°26' W 079°55'4 7.5
2016-Apr-27 15:33N 09°22' W 079°54'5 0.2
2016-Apr-26 18:32N 09°27' W 079°53'  
2016-Apr-22 19:00N 31°00' W 071°42'29115.3 210 / 101023.010.8 1.522.0
2016-Apr-22 00:00N 35°48' W 070°54'6716.7 210 / 161023.010.8 1.517.013.5
2016-Apr-21 20:00N 36°54' W 070°42'11714.6 230 / 131024.010.8 1.019.019.016.0
2016-Apr-21 12:00N 38°36' W 071°54'7315.3 210 / 121025.010.8 0.515.011.3
2016-Apr-21 07:16N 39°33' W 072°52'1115.4
2016-Apr-21 06:33N 39°41' W 073°01'1515.3
2016-Apr-21 05:33N 39°53' W 073°14'2015.5
2016-Apr-21 04:17N 40°09' W 073°30'911.8
2016-Apr-21 03:33N 40°15' W 073°37'9 9.5
2016-Apr-21 02:33N 40°23' W 073°45'9 8.9
2016-Apr-21 01:33N 40°29' W 073°53'1111.0
2016-Apr-21 00:33N 40°37' W 074°03'5 5.3
2016-Apr-20 23:33N 40°40' W 074°08'0 0.2
2016-Apr-20 22:33N 40°40' W 074°08'0 0.0
2016-Apr-20 21:33N 40°40' W 074°08'0 0.0
2016-Apr-20 20:33N 40°40' W 074°08'0 0.0
2016-Apr-20 19:33N 40°40' W 074°08'0 0.0
2016-Apr-20 18:33N 40°40' W 074°08'0 0.0
2016-Apr-20 17:33N 40°40' W 074°08'0 0.0
2016-Apr-20 16:33N 40°40' W 074°08'0 0.0
2016-Apr-20 15:33N 40°40' W 074°08'0 0.0
2016-Apr-20 14:33N 40°40' W 074°08'0 0.0
2016-Apr-20 13:30N 40°40' W 074°08'0 0.0
2016-Apr-20 12:33N 40°40' W 074°08'0 0.0
2016-Apr-20 11:33N 40°40' W 074°08'0 0.0
2016-Apr-20 10:33N 40°40' W 074°08'2 1.9
2016-Apr-20 09:33N 40°39' W 074°07'3 3.4
2016-Apr-20 08:33N 40°37' W 074°03'8 8.2
2016-Apr-20 07:33N 40°30' W 073°58'9 8.6
2016-Apr-20 06:32N 40°26' W 073°48'9 8.7
2016-Apr-20 05:28N 40°16' W 073°46'9 8.9
2016-Apr-20 04:30N 40°08' W 073°44'1010.3
2016-Apr-20 03:33N 39°58' W 073°43'1817.5
2016-Apr-20 02:33N 39°41' W 073°44'1818.2
2016-Apr-20 01:33N 39°24' W 073°52'1818.2
2016-Apr-20 00:34N 39°07' W 074°00'4118.3
2016-Apr-19 22:18N 38°29' W 074°22'1518.5
2016-Apr-19 21:29N 38°16' W 074°30'9718.4
2016-Apr-19 16:11N 36°50' W 075°30'6 9.7
2016-Apr-19 15:33N 36°48' W 075°36'9 9.0
2016-Apr-19 14:33N 36°49' W 075°48'8 8.4
2016-Apr-19 13:33N 36°54' W 075°56'1211.9
2016-Apr-19 12:33N 36°59' W 076°09'1010.0
2016-Apr-19 11:33N 36°54' W 076°20'1 1.3
2016-Apr-19 10:31N 36°53' W 076°21'0 0.0
2016-Apr-19 09:31N 36°53' W 076°21'0 0.0
2016-Apr-19 08:31N 36°53' W 076°21'0 0.0
2016-Apr-19 07:31N 36°53' W 076°21'0 0.0
2016-Apr-19 06:31N 36°53' W 076°21'0 0.0
2016-Apr-19 05:31N 36°53' W 076°21'0 0.0
2016-Apr-19 04:31N 36°53' W 076°21'0 0.0
2016-Apr-19 03:31N 36°53' W 076°21'0 0.0
2016-Apr-19 02:31N 36°53' W 076°21'1 0.9
2016-Apr-19 01:34N 36°53' W 076°20'9 8.5
2016-Apr-19 00:33N 37°00' W 076°14'1414.1
2016-Apr-18 23:33N 36°56' W 075°58'7 7.4
2016-Apr-18 22:33N 36°52' W 075°50'7 3.3
2016-Apr-18 20:33N 36°48' W 075°43'6 6.2
2016-Apr-18 19:33N 36°51' W 075°50'7 6.8
2016-Apr-18 18:33N 36°55' W 075°57'1312.9
2016-Apr-18 17:32N 37°05' W 076°07'5618.6
2016-Apr-18 14:33N 38°01' W 076°13'2720.6
2016-Apr-18 13:15N 38°27' W 076°22'1318.5
2016-Apr-18 12:33N 38°39' W 076°25'1716.5
2016-Apr-18 11:33N 38°56' W 076°23'1313.3
2016-Apr-18 10:34N 39°09' W 076°25'9 9.2
2016-Apr-18 09:34N 39°15' W 076°34'1 0.6
2016-Apr-18 08:33N 39°15' W 076°33'0 0.0
2016-Apr-18 07:33N 39°15' W 076°33'0 0.0
2016-Apr-18 06:33N 39°15' W 076°33'0 0.0
2016-Apr-18 05:33N 39°15' W 076°33'0 0.0
2016-Apr-18 04:33N 39°15' W 076°33'0 0.0
2016-Apr-18 03:30N 39°15' W 076°33'0 0.0
2016-Apr-18 02:33N 39°15' W 076°33'0 0.0
2016-Apr-18 01:33N 39°15' W 076°33'0 0.0
2016-Apr-18 00:33N 39°15' W 076°33'0 0.0
2016-Apr-17 23:33N 39°15' W 076°33'0 0.0
2016-Apr-17 22:33N 39°15' W 076°33'0 0.0
2016-Apr-17 21:33N 39°15' W 076°33'0 0.0
2016-Apr-17 20:33N 39°15' W 076°33'0 0.0
2016-Apr-17 19:33N 39°15' W 076°33'0 0.0
2016-Apr-17 18:33N 39°15' W 076°33'0 0.0
2016-Apr-17 17:33N 39°15' W 076°33'0 0.0
2016-Apr-17 16:33N 39°15' W 076°33'  

Dump ship's entire track history